createdAt,value
2022-08-17T00:00:49.523Z,18.31
2022-08-17T00:01:51.783Z,18.33
2022-08-17T00:03:54.432Z,18.34
2022-08-17T00:04:55.544Z,18.33
2022-08-17T00:06:01.513Z,18.33
2022-08-17T00:06:59.059Z,18.32
2022-08-17T00:07:59.270Z,18.31
2022-08-17T00:09:01.844Z,18.28
2022-08-17T00:09:59.996Z,18.3
2022-08-17T00:11:01.242Z,18.27
2022-08-17T00:12:42.216Z,18.25
2022-08-17T00:15:12.949Z,18.22
2022-08-17T00:16:16.121Z,18.22
2022-08-17T00:17:13.458Z,18.2
2022-08-17T00:18:57.483Z,18.21
2022-08-17T00:19:19.211Z,18.18
2022-08-17T00:20:18.526Z,18.16
2022-08-17T00:21:25.338Z,18.15
2022-08-17T00:22:34.726Z,18.13
2022-08-17T00:23:24.148Z,18.13
2022-08-17T00:24:23.954Z,18.06
2022-08-17T00:25:24.162Z,18.04
2022-08-17T00:26:44.273Z,17.98
2022-08-17T00:27:27.660Z,17.97
2022-08-17T00:28:28.077Z,17.93
2022-08-17T00:29:30.641Z,17.84
2022-08-17T00:30:31.167Z,17.78
2022-08-17T00:31:33.827Z,17.72
2022-08-17T00:33:36.610Z,17.72
2022-08-17T00:34:36.408Z,17.67
2022-08-17T00:35:37.540Z,17.62
2022-08-17T00:36:37.033Z,17.57
2022-08-17T00:37:37.559Z,17.53
2022-08-17T00:38:38.045Z,17.46
2022-08-17T00:39:38.346Z,17.41
2022-08-17T00:41:42.370Z,17.44
2022-08-17T00:42:41.371Z,17.44
2022-08-17T00:44:42.731Z,17.44
2022-08-17T00:45:43.445Z,17.44
2022-08-17T00:46:44.783Z,17.42
2022-08-17T00:47:44.066Z,17.45
2022-08-17T00:48:45.202Z,17.44
2022-08-17T00:49:44.700Z,17.39
2022-08-17T00:54:55.286Z,17.38
2022-08-17T00:55:54.983Z,17.37
2022-08-17T00:58:00.316Z,17.3
2022-08-17T00:58:59.002Z,17.27
2022-08-17T01:01:01.489Z,17.29
2022-08-17T01:02:02.493Z,17.29
2022-08-17T01:03:06.431Z,17.29
2022-08-17T01:04:04.868Z,17.29
2022-08-17T01:05:04.765Z,17.28
2022-08-17T01:06:06.678Z,17.28
2022-08-17T01:07:06.423Z,17.27
2022-08-17T01:08:09.493Z,17.24
2022-08-17T01:09:06.739Z,17.23
2022-08-17T01:11:00.039Z,17.23
2022-08-17T01:11:08.697Z,17.22
2022-08-17T01:12:10.337Z,17.17
2022-08-17T01:13:09.221Z,17.12
2022-08-17T01:14:09.639Z,17.1
2022-08-17T01:15:10.461Z,17.09
2022-08-17T01:17:13.240Z,17.02
2022-08-17T01:18:13.566Z,17.01
2022-08-17T01:20:16.127Z,16.96
2022-08-17T01:22:25.659Z,16.91
2022-08-17T01:23:25.377Z,16.89
2022-08-17T01:24:24.043Z,16.89
2022-08-17T01:25:25.068Z,16.91
2022-08-17T01:26:24.256Z,16.94
2022-08-17T01:27:25.697Z,16.94
2022-08-17T01:28:52.581Z,16.93
2022-08-17T01:29:31.547Z,16.96
2022-08-17T01:30:57.160Z,16.98
2022-08-17T01:32:36.181Z,16.98
2022-08-17T01:33:37.319Z,16.96
2022-08-17T01:34:42.663Z,16.95
2022-08-17T01:35:41.426Z,16.95
2022-08-17T01:36:43.886Z,16.97
2022-08-17T01:37:42.875Z,16.96
2022-08-17T01:38:42.366Z,16.93
2022-08-17T01:41:52.111Z,16.89
2022-08-17T01:44:57.446Z,16.83
2022-08-17T01:46:02.686Z,16.82
2022-08-17T01:46:56.240Z,16.81
2022-08-17T01:47:57.165Z,16.79
2022-08-17T01:48:58.406Z,16.79
2022-08-17T01:49:57.381Z,16.8
2022-08-17T01:50:58.116Z,16.79
2022-08-17T01:52:04.056Z,16.79
2022-08-17T01:54:10.326Z,16.77
2022-08-17T01:55:09.302Z,16.76
2022-08-17T01:56:11.251Z,16.74
2022-08-17T01:57:09.310Z,16.75
2022-08-17T01:58:08.998Z,16.74
2022-08-17T01:59:09.426Z,16.73
2022-08-17T02:00:10.515Z,16.7
2022-08-17T02:01:11.635Z,16.69
2022-08-17T02:02:10.546Z,16.68
2022-08-17T02:03:11.013Z,16.67
2022-08-17T02:04:12.320Z,16.68
2022-08-17T02:05:13.047Z,16.68
2022-08-17T02:06:27.997Z,16.68
2022-08-17T02:07:15.827Z,16.68
2022-08-17T02:08:20.099Z,16.66
2022-08-17T02:09:17.786Z,16.65
2022-08-17T02:10:20.284Z,16.63
2022-08-17T02:11:20.766Z,16.61
2022-08-17T02:12:38.359Z,16.6
2022-08-17T02:13:21.806Z,16.57
2022-08-17T02:14:21.910Z,16.55
2022-08-17T02:15:22.536Z,16.53
2022-08-17T02:16:22.338Z,16.5
2022-08-17T02:17:22.954Z,16.49
2022-08-17T02:18:23.773Z,16.47
2022-08-17T02:19:23.689Z,16.43
2022-08-17T02:20:41.660Z,16.42
2022-08-17T02:21:25.335Z,16.45
2022-08-17T02:22:26.376Z,16.45
2022-08-17T02:25:32.836Z,16.4
2022-08-17T02:26:30.806Z,16.4
2022-08-17T02:27:31.427Z,16.42
2022-08-17T02:28:31.652Z,16.43
2022-08-17T02:29:32.146Z,16.43
2022-08-17T02:30:59.656Z,16.44
2022-08-17T02:31:34.828Z,16.46
2022-08-17T02:32:35.339Z,16.47
2022-08-17T02:33:42.955Z,16.48
2022-08-17T02:34:36.035Z,16.5
2022-08-17T02:35:38.007Z,16.48
2022-08-17T02:36:36.910Z,16.48
2022-08-17T02:37:37.422Z,16.49
2022-08-17T02:38:39.176Z,16.51
2022-08-17T02:39:38.464Z,16.51
2022-08-17T02:40:38.748Z,16.53
2022-08-17T02:41:39.829Z,16.52
2022-08-17T02:42:42.138Z,16.52
2022-08-17T02:43:40.035Z,16.51
2022-08-17T02:44:41.056Z,16.51
2022-08-17T02:45:41.162Z,16.52
2022-08-17T02:46:41.479Z,16.51
2022-08-17T02:47:42.524Z,16.51
2022-08-17T02:48:42.432Z,16.52
2022-08-17T02:49:54.126Z,16.49
2022-08-17T02:50:48.686Z,16.45
2022-08-17T02:51:50.121Z,16.42
2022-08-17T02:53:01.596Z,16.4
2022-08-17T02:53:50.445Z,16.4
2022-08-17T02:54:50.545Z,16.42
2022-08-17T02:55:51.065Z,16.46
2022-08-17T02:56:51.786Z,16.49
2022-08-17T02:57:52.515Z,16.48
2022-08-17T02:58:52.406Z,16.48
2022-08-17T02:59:52.924Z,16.49
2022-08-17T03:00:53.338Z,16.5
2022-08-17T03:01:53.884Z,16.47
2022-08-17T03:02:54.898Z,16.47
2022-08-17T03:03:54.798Z,16.47
2022-08-17T03:04:55.112Z,16.47
2022-08-17T03:05:56.143Z,16.42
2022-08-17T03:06:56.452Z,16.4
2022-08-17T03:07:57.187Z,16.39
2022-08-17T03:08:57.300Z,16.37
2022-08-17T03:09:57.924Z,16.37
2022-08-17T03:10:58.296Z,16.36
2022-08-17T03:12:07.464Z,16.37
2022-08-17T03:13:00.285Z,16.39
2022-08-17T03:14:00.401Z,16.41
2022-08-17T03:15:05.927Z,16.41
2022-08-17T03:16:03.780Z,16.47
2022-08-17T03:17:04.305Z,16.46
2022-08-17T03:18:04.625Z,16.46
2022-08-17T03:19:04.827Z,16.44
2022-08-17T03:20:07.396Z,16.43
2022-08-17T03:21:06.485Z,16.45
2022-08-17T03:22:36.035Z,16.46
2022-08-17T03:23:11.125Z,16.43
2022-08-17T03:24:11.062Z,16.39
2022-08-17T03:25:14.717Z,16.39
2022-08-17T03:26:12.170Z,16.39
2022-08-17T03:27:12.976Z,16.43
2022-08-17T03:28:13.497Z,16.41
2022-08-17T03:29:13.799Z,16.43
2022-08-17T03:30:15.841Z,16.47
2022-08-17T03:31:14.709Z,16.48
2022-08-17T03:32:16.485Z,16.5
2022-08-17T03:33:15.980Z,16.5
2022-08-17T03:34:17.233Z,16.5
2022-08-17T03:35:19.171Z,16.51
2022-08-17T03:36:17.034Z,16.52
2022-08-17T03:37:17.645Z,16.53
2022-08-17T03:38:18.504Z,16.54
2022-08-17T03:39:18.581Z,16.56
2022-08-17T03:40:37.005Z,16.56
2022-08-17T03:41:21.884Z,16.56
2022-08-17T03:42:32.478Z,16.55
2022-08-17T03:43:25.975Z,16.57
2022-08-17T03:44:25.777Z,16.55
2022-08-17T03:45:26.515Z,16.57
2022-08-17T03:46:34.167Z,16.58
2022-08-17T03:47:32.896Z,16.58
2022-08-17T03:48:33.287Z,16.58
2022-08-17T03:49:33.794Z,16.59
2022-08-17T03:50:34.337Z,16.62
2022-08-17T03:51:34.321Z,16.63
2022-08-17T03:52:34.650Z,16.68
2022-08-17T03:54:38.338Z,16.7
2022-08-17T03:55:38.858Z,16.79
2022-08-17T03:56:39.696Z,16.84
2022-08-17T03:57:39.498Z,16.87
2022-08-17T03:58:39.396Z,16.97
2022-08-17T03:59:40.908Z,17
2022-08-17T04:00:40.731Z,17.02
2022-08-17T04:01:40.848Z,17.07
2022-08-17T04:02:42.910Z,17.13
2022-08-17T04:03:41.468Z,17.16
2022-08-17T04:04:41.885Z,17.2
2022-08-17T04:05:42.619Z,17.29
2022-08-17T04:06:42.843Z,17.31
2022-08-17T04:07:43.545Z,17.37
2022-08-17T04:08:43.341Z,17.41
2022-08-17T04:09:43.765Z,17.46
2022-08-17T04:10:45.142Z,17.49
2022-08-17T04:11:44.811Z,17.56
2022-08-17T04:13:46.863Z,17.72
2022-08-17T04:14:53.270Z,17.78
2022-08-17T04:15:52.014Z,17.84
2022-08-17T04:16:52.518Z,17.9
2022-08-17T04:17:52.829Z,17.95
2022-08-17T04:18:53.342Z,18.02
2022-08-17T04:19:55.233Z,18.11
2022-08-17T04:20:54.076Z,18.21
2022-08-17T04:21:54.183Z,18.31
2022-08-17T04:23:58.916Z,18.49
2022-08-17T04:24:59.221Z,18.57
2022-08-17T04:25:59.646Z,18.69
2022-08-17T04:27:00.269Z,18.73
2022-08-17T04:28:01.639Z,18.75
2022-08-17T04:29:00.897Z,18.84
2022-08-17T04:30:01.316Z,18.95
2022-08-17T04:31:01.416Z,18.97
2022-08-17T04:32:02.957Z,19.11
2022-08-17T04:33:08.635Z,19.23
2022-08-17T04:34:06.055Z,19.19
2022-08-17T04:35:07.092Z,19.23
2022-08-17T04:36:08.717Z,19.26
2022-08-17T04:37:07.181Z,19.29
2022-08-17T04:38:09.753Z,19.36
2022-08-17T04:39:08.237Z,19.39
2022-08-17T04:40:09.702Z,19.39
2022-08-17T04:41:09.563Z,19.37
2022-08-17T04:42:09.167Z,19.37
2022-08-17T04:44:12.041Z,19.38
2022-08-17T04:45:11.857Z,19.41
2022-08-17T04:46:17.796Z,19.48
2022-08-17T04:47:15.039Z,19.51
2022-08-17T04:48:15.651Z,19.56
2022-08-17T04:49:15.962Z,19.6
2022-08-17T04:50:16.703Z,19.58
2022-08-17T04:51:22.436Z,19.59
2022-08-17T04:52:37.462Z,19.59
2022-08-17T04:53:21.928Z,19.67
2022-08-17T04:54:22.560Z,19.72
2022-08-17T04:55:22.864Z,19.73
2022-08-17T04:56:26.055Z,19.79
2022-08-17T04:57:23.593Z,19.85
2022-08-17T04:58:23.915Z,19.86
2022-08-17T04:59:24.324Z,19.92
2022-08-17T05:00:24.957Z,19.93
2022-08-17T05:01:28.173Z,19.96
2022-08-17T05:02:25.587Z,19.97
2022-08-17T05:03:26.400Z,20.04
2022-08-17T05:04:33.966Z,20.12
2022-08-17T05:05:30.206Z,20.18
2022-08-17T05:06:30.121Z,20.26
2022-08-17T05:07:31.587Z,20.3
2022-08-17T05:08:29.507Z,20.29
2022-08-17T05:09:29.943Z,20.35
2022-08-17T05:10:34.848Z,20.45
2022-08-17T05:11:35.161Z,20.55
2022-08-17T05:12:34.758Z,20.59
2022-08-17T05:13:35.187Z,20.72
2022-08-17T05:14:38.348Z,20.8
2022-08-17T05:15:38.559Z,20.92
2022-08-17T05:16:37.441Z,21.04
2022-08-17T05:17:37.762Z,21.18
2022-08-17T05:18:38.275Z,21.19
2022-08-17T05:19:38.796Z,21.16
2022-08-17T05:20:40.338Z,21.24
2022-08-17T05:21:39.417Z,21.25
2022-08-17T05:23:47.730Z,21.37
2022-08-17T05:24:53.944Z,21.43
2022-08-17T05:25:50.519Z,21.31
2022-08-17T05:26:48.366Z,21.32
2022-08-17T05:27:48.885Z,21.44
2022-08-17T05:28:49.301Z,21.51
2022-08-17T05:29:49.719Z,21.66
2022-08-17T05:30:50.433Z,21.6
2022-08-17T05:31:50.448Z,21.65
2022-08-17T05:32:56.289Z,21.73
2022-08-17T05:33:53.627Z,21.78
2022-08-17T05:34:56.919Z,21.76
2022-08-17T05:35:57.227Z,21.82
2022-08-17T05:36:54.990Z,21.9
2022-08-17T05:37:56.758Z,21.99
2022-08-17T05:38:55.719Z,22.05
2022-08-17T05:39:56.086Z,22.08
2022-08-17T05:40:57.671Z,22.08
2022-08-17T05:41:56.548Z,22.15
2022-08-17T05:43:57.591Z,22.38
2022-08-17T05:44:58.725Z,22.27
2022-08-17T05:47:05.180Z,22.31
2022-08-17T05:48:08.163Z,22.48
2022-08-17T05:49:08.783Z,22.58
2022-08-17T05:50:10.077Z,22.58
2022-08-17T06:00:31.395Z,22.65
2022-08-17T06:17:08.657Z,23.43
2022-08-17T06:18:09.494Z,23.47
2022-08-17T06:20:15.406Z,23.58
2022-08-17T06:21:17.183Z,23.53
2022-08-17T06:22:20.171Z,23.57
2022-08-17T06:23:30.411Z,23.63
2022-08-17T06:26:42.800Z,23.82
2022-08-17T06:28:41.718Z,24.04
2022-08-17T06:31:41.725Z,24.18
2022-08-17T06:33:44.501Z,24.29
2022-08-17T06:34:46.244Z,24.3
2022-08-17T06:45:18.286Z,24.57
2022-08-17T06:57:55.215Z,24.43
2022-08-17T06:58:57.071Z,24.5
2022-08-17T07:00:58.747Z,24.61
2022-08-17T07:01:56.975Z,24.53
2022-08-17T07:05:02.636Z,24.58
2022-08-17T07:06:08.364Z,24.42
2022-08-17T07:07:10.013Z,24.39
2022-08-17T07:10:14.968Z,24.79
2022-08-17T07:12:21.586Z,24.67
2022-08-17T07:17:46.692Z,24.93
2022-08-17T07:18:30.900Z,24.86
2022-08-17T07:19:32.928Z,24.83
2022-08-17T07:20:30.647Z,24.88
2022-08-17T07:25:42.697Z,24.86
2022-08-17T07:26:43.025Z,24.87
2022-08-17T07:27:46.297Z,25.03
2022-08-17T07:28:44.367Z,25.17
2022-08-17T07:31:48.772Z,25.14
2022-08-17T07:35:04.465Z,25.2
2022-08-17T07:35:59.162Z,25.17
2022-08-17T07:37:05.437Z,25.11
2022-08-17T07:38:25.416Z,25.12
2022-08-17T07:39:04.386Z,25.23
2022-08-17T07:41:10.860Z,25.16
2022-08-17T07:42:10.761Z,25.1
2022-08-17T07:43:21.899Z,25.26
2022-08-17T07:44:16.192Z,25.35
2022-08-17T07:45:15.498Z,25.37
2022-08-17T07:47:17.337Z,25.51
2022-08-17T07:48:21.483Z,25.52
2022-08-17T07:49:32.618Z,25.65
2022-08-17T07:50:28.637Z,25.66
2022-08-17T07:51:28.761Z,25.76
2022-08-17T07:53:26.502Z,25.86
2022-08-17T07:54:33.466Z,25.87
2022-08-17T07:55:32.664Z,25.78
2022-08-17T07:57:35.949Z,25.37
2022-08-17T07:58:34.515Z,25.41
2022-08-17T07:59:36.803Z,25.53
2022-08-17T08:00:35.148Z,25.62
2022-08-17T08:01:39.378Z,25.63
2022-08-17T08:02:42.411Z,25.76
2022-08-17T08:03:44.383Z,25.85
2022-08-17T08:05:03.838Z,25.87
2022-08-17T08:05:52.600Z,25.96
2022-08-17T08:06:52.697Z,25.91
2022-08-17T08:08:55.883Z,25.96
2022-08-17T08:11:04.909Z,25.85
2022-08-17T08:17:22.560Z,25.84
2022-08-17T08:18:54.943Z,25.88
2022-08-17T08:19:20.591Z,25.86
2022-08-17T08:20:51.766Z,25.89
2022-08-17T08:27:42.497Z,26.3
2022-08-17T08:30:46.099Z,26.26
2022-08-17T08:55:58.862Z,26.29
2022-08-17T08:57:22.344Z,26.42
2022-08-17T09:01:00.316Z,26.4
2022-08-17T09:15:42.503Z,26.62
2022-08-17T09:29:14.120Z,26.82
2022-08-17T09:30:12.518Z,26.82
2022-08-17T09:31:19.062Z,26.98
2022-08-17T09:33:24.598Z,27.12
2022-08-17T09:39:46.897Z,27.4
2022-08-17T09:50:13.648Z,27.34
2022-08-17T09:53:07.623Z,27.35
2022-08-17T09:55:10.624Z,27.28
2022-08-17T10:18:19.468Z,27.44
2022-08-17T10:21:15.083Z,27.41
2022-08-17T10:25:24.855Z,27.34
2022-08-17T10:26:26.052Z,27.55
2022-08-17T10:28:32.324Z,27.29
2022-08-17T10:29:46.194Z,27.48
2022-08-17T10:30:35.105Z,27.56
2022-08-17T10:55:34.038Z,27.78
2022-08-17T10:57:45.428Z,27.92
2022-08-17T11:24:45.618Z,28.38
2022-08-17T11:25:53.935Z,28.47
2022-08-17T11:27:51.563Z,28.3
2022-08-17T11:28:52.893Z,28.4
2022-08-17T11:32:59.382Z,28.46
2022-08-17T11:56:51.135Z,28.65
2022-08-17T11:58:00.364Z,28.66
2022-08-17T11:58:52.892Z,28.49
2022-08-17T12:00:01.096Z,28.59
2022-08-17T12:01:00.912Z,28.4
2022-08-17T12:01:59.663Z,28.21
2022-08-17T12:09:22.953Z,28.31
2022-08-17T12:12:31.381Z,28.37
2022-08-17T12:13:38.549Z,28.38
2022-08-17T12:15:07.956Z,28.38
2022-08-17T12:16:40.892Z,28.36
2022-08-17T12:17:52.275Z,28.42
2022-08-17T12:19:48.539Z,28.57
2022-08-17T12:27:07.212Z,28.56
2022-08-17T12:29:18.161Z,28.6
2022-08-17T12:30:15.523Z,28.56
2022-08-17T12:32:19.930Z,28.67
2022-08-17T12:33:25.443Z,28.78
2022-08-17T12:34:24.655Z,28.72
2022-08-17T12:35:30.298Z,28.75
2022-08-17T12:36:24.886Z,28.7
2022-08-17T12:37:31.134Z,28.54
2022-08-17T12:38:30.389Z,28.41
2022-08-17T12:39:26.784Z,28.38
2022-08-17T12:40:28.600Z,28.54
2022-08-17T12:42:36.194Z,28.48
2022-08-17T12:43:33.416Z,28.38
2022-08-17T12:44:46.278Z,28.38
2022-08-17T12:45:39.474Z,28.55
2022-08-17T12:47:39.805Z,28.42
2022-08-17T12:48:40.215Z,28.66
2022-08-17T12:49:42.777Z,28.48
2022-08-17T12:50:45.042Z,28.58
2022-08-17T12:51:45.448Z,28.58
2022-08-17T12:52:43.624Z,28.59
2022-08-17T12:55:50.194Z,28.82
2022-08-17T12:56:49.069Z,28.9
2022-08-17T12:58:52.473Z,28.55
2022-08-17T13:02:00.650Z,28.71
2022-08-17T13:04:04.677Z,28.76
2022-08-17T13:05:07.571Z,28.87
2022-08-17T13:07:07.572Z,28.73
2022-08-17T13:13:22.972Z,28.94
2022-08-17T13:14:20.833Z,29
2022-08-17T13:15:24.828Z,28.82
2022-08-17T13:16:27.902Z,28.92
2022-08-17T13:17:28.620Z,28.98
2022-08-17T13:19:40.078Z,29
2022-08-17T13:20:28.750Z,28.79
2022-08-17T13:21:29.884Z,28.76
2022-08-17T13:22:30.309Z,28.83
2022-08-17T13:23:30.300Z,28.82
2022-08-17T13:24:38.262Z,28.84
2022-08-17T13:25:31.341Z,28.89
2022-08-17T13:27:36.473Z,29.15
2022-08-17T13:28:36.788Z,29.13
2022-08-17T13:30:39.973Z,29.11
2022-08-17T13:31:52.290Z,29.04
2022-08-17T13:32:45.767Z,28.81
2022-08-17T13:33:45.056Z,28.63
2022-08-17T13:35:14.106Z,28.73
2022-08-17T13:35:50.453Z,28.7
2022-08-17T13:36:51.172Z,28.68
2022-08-17T13:39:59.400Z,28.59
2022-08-17T13:40:57.328Z,28.5
2022-08-17T13:41:57.452Z,28.53
2022-08-17T13:42:58.587Z,28.55
2022-08-17T13:43:58.076Z,28.66
2022-08-17T13:44:59.324Z,28.75
2022-08-17T13:47:02.912Z,28.62
2022-08-17T13:55:28.360Z,28.04
2022-08-17T13:57:28.681Z,28.15
2022-08-17T14:00:35.772Z,27.92
2022-08-17T14:02:35.371Z,28.18
2022-08-17T14:03:35.480Z,28.25
2022-08-17T14:04:38.563Z,28.28
2022-08-17T14:05:39.386Z,28.26
2022-08-17T14:07:40.419Z,28.33
2022-08-17T14:08:41.047Z,28.27
2022-08-17T14:10:56.726Z,28.25
2022-08-17T14:11:49.875Z,28.23
2022-08-17T14:12:49.577Z,28.25
2022-08-17T14:13:50.735Z,28.19
2022-08-17T14:14:51.115Z,28.07
2022-08-17T14:15:55.224Z,28.07
2022-08-17T14:16:54.207Z,28.1
2022-08-17T14:17:54.696Z,28.1
2022-08-17T14:18:56.907Z,27.98
2022-08-17T14:19:55.353Z,27.97
2022-08-17T14:20:55.565Z,28.03
2022-08-17T14:21:55.985Z,28.02
2022-08-17T14:22:56.393Z,27.95
2022-08-17T14:23:57.934Z,28.01
2022-08-17T14:24:58.146Z,27.88
2022-08-17T14:25:57.641Z,27.92
2022-08-17T14:26:59.592Z,28.02
2022-08-17T14:27:58.460Z,28.07
2022-08-17T14:28:58.582Z,27.91
2022-08-17T14:29:59.519Z,28
2022-08-17T14:31:00.543Z,28.08
2022-08-17T14:32:04.032Z,27.97
2022-08-17T14:33:01.691Z,27.97
2022-08-17T14:34:01.798Z,27.99
2022-08-17T14:35:05.384Z,28.08
2022-08-17T14:36:03.754Z,27.93
2022-08-17T14:37:03.151Z,28
2022-08-17T14:38:03.558Z,28.08
2022-08-17T14:39:04.384Z,28.16
2022-08-17T14:40:09.954Z,28.18
2022-08-17T14:41:07.468Z,28.24
2022-08-17T14:42:07.984Z,28.27
2022-08-17T14:43:08.196Z,28.32
2022-08-17T14:44:08.928Z,28.2
2022-08-17T14:45:29.957Z,28.13
2022-08-17T14:46:13.033Z,28.11
2022-08-17T14:47:13.342Z,28.08
2022-08-17T14:48:13.456Z,27.93
2022-08-17T14:49:14.179Z,28
2022-08-17T14:50:15.105Z,27.96
2022-08-17T14:51:16.862Z,27.86
2022-08-17T14:52:18.909Z,27.89
2022-08-17T14:53:17.708Z,27.86
2022-08-17T14:54:33.312Z,27.86
2022-08-17T14:55:22.411Z,27.85
2022-08-17T14:56:22.223Z,27.81
2022-08-17T14:57:34.334Z,27.82
2022-08-17T14:58:27.262Z,27.73
2022-08-17T14:59:27.562Z,27.71
2022-08-17T15:00:27.768Z,27.82
2022-08-17T15:01:28.174Z,27.89
2022-08-17T15:02:30.893Z,27.91
2022-08-17T15:03:28.925Z,27.93
2022-08-17T15:04:29.745Z,27.86
2022-08-17T15:05:34.862Z,27.83
2022-08-17T15:06:32.323Z,27.76
2022-08-17T15:07:32.746Z,27.77
2022-08-17T15:08:33.264Z,27.82
2022-08-17T15:09:35.766Z,27.88
2022-08-17T15:10:35.119Z,27.96
2022-08-17T15:11:34.699Z,27.98
2022-08-17T15:12:35.744Z,27.81
2022-08-17T15:13:35.954Z,27.84
2022-08-17T15:14:36.457Z,27.94
2022-08-17T15:15:35.971Z,27.77
2022-08-17T15:16:37.295Z,27.77
2022-08-17T15:17:44.485Z,27.69
2022-08-17T15:18:38.134Z,27.69
2022-08-17T15:19:38.444Z,27.72
2022-08-17T15:20:39.162Z,27.73
2022-08-17T15:21:39.166Z,27.67
2022-08-17T15:22:44.502Z,27.61
2022-08-17T15:23:41.973Z,27.6
2022-08-17T15:24:42.158Z,27.52
2022-08-17T15:25:43.304Z,27.57
2022-08-17T15:26:43.297Z,27.56
2022-08-17T15:27:43.310Z,27.53
2022-08-17T15:28:43.678Z,27.52
2022-08-17T15:29:46.291Z,27.54
2022-08-17T15:30:46.806Z,27.68
2022-08-17T15:31:47.127Z,27.79
2022-08-17T15:32:54.068Z,27.82
2022-08-17T15:33:53.180Z,27.79
2022-08-17T15:34:55.026Z,27.85
2022-08-17T15:35:53.084Z,27.91
2022-08-17T15:36:53.809Z,27.77
2022-08-17T15:37:53.710Z,27.67
2022-08-17T15:38:54.230Z,27.52
2022-08-17T15:39:55.903Z,27.41
2022-08-17T15:40:55.268Z,27.21
2022-08-17T15:41:58.564Z,27.23
2022-08-17T15:42:56.411Z,27.14
2022-08-17T15:43:56.631Z,27.13
2022-08-17T15:44:57.139Z,27.02
2022-08-17T15:46:58.070Z,26.97
2022-08-17T15:47:58.597Z,26.81
2022-08-17T15:49:00.448Z,26.65
2022-08-17T15:50:00.279Z,26.6
2022-08-17T15:51:01.038Z,26.62
2022-08-17T15:52:00.051Z,26.51
2022-08-17T15:53:01.600Z,26.52
2022-08-17T15:54:19.354Z,26.48
2022-08-17T15:55:06.726Z,26.51
2022-08-17T15:56:07.004Z,26.42
2022-08-17T15:57:06.022Z,26.35
2022-08-17T15:58:06.230Z,26.23
2022-08-17T15:59:06.347Z,26.23
2022-08-17T16:00:09.328Z,26.19
2022-08-17T16:01:14.131Z,25.99
2022-08-17T16:03:45.126Z,25.98
2022-08-17T16:04:30.293Z,26.01
2022-08-17T16:05:18.819Z,25.95
2022-08-17T16:06:17.963Z,25.82
2022-08-17T16:07:17.659Z,25.86
2022-08-17T16:08:21.147Z,25.84
2022-08-17T16:09:18.989Z,25.79
2022-08-17T16:10:19.700Z,25.7
2022-08-17T16:11:20.251Z,25.74
2022-08-17T16:12:21.275Z,25.69
2022-08-17T16:13:20.158Z,25.7
2022-08-17T16:14:20.890Z,25.73
2022-08-17T16:15:20.890Z,25.68
2022-08-17T16:16:21.198Z,25.65
2022-08-17T16:17:38.898Z,25.69
2022-08-17T16:18:24.190Z,25.66
2022-08-17T16:19:23.376Z,25.67
2022-08-17T16:20:23.654Z,25.67
2022-08-17T16:21:24.004Z,25.6
2022-08-17T16:23:26.066Z,25.46
2022-08-17T16:24:26.478Z,25.43
2022-08-17T16:25:52.551Z,25.44
2022-08-17T16:26:29.459Z,25.46
2022-08-17T16:27:27.620Z,25.33
2022-08-17T16:28:36.354Z,25.18
2022-08-17T16:29:28.965Z,25.21
2022-08-17T16:30:29.963Z,25.19
2022-08-17T16:31:30.412Z,25.1
2022-08-17T16:32:31.909Z,25.08
2022-08-17T16:33:30.637Z,25
2022-08-17T16:34:30.640Z,25.02
2022-08-17T16:35:31.059Z,25.06
2022-08-17T16:36:31.469Z,25.07
2022-08-17T16:37:33.051Z,25.09
2022-08-17T16:38:32.409Z,25.07
2022-08-17T16:39:32.683Z,25.07
2022-08-17T16:40:35.621Z,25.01
2022-08-17T16:41:33.867Z,24.94
2022-08-17T16:42:35.603Z,24.99
2022-08-17T16:43:34.789Z,24.97
2022-08-17T16:44:34.602Z,24.86
2022-08-17T16:45:35.327Z,24.88
2022-08-17T16:46:35.528Z,24.76
2022-08-17T16:47:36.461Z,24.6
2022-08-17T16:48:36.053Z,24.51
2022-08-17T16:49:38.091Z,24.45
2022-08-17T16:50:36.891Z,24.35
2022-08-17T16:51:37.617Z,24.24
2022-08-17T16:52:38.241Z,24.24
2022-08-17T16:53:37.642Z,24.16
2022-08-17T16:54:39.886Z,24.04
2022-08-17T16:55:38.688Z,23.95
2022-08-17T16:56:38.666Z,23.87
2022-08-17T16:57:48.538Z,23.77
2022-08-17T16:58:42.987Z,23.74
2022-08-17T16:59:47.965Z,23.74
2022-08-17T17:00:46.283Z,23.68
2022-08-17T17:01:45.966Z,23.64
2022-08-17T17:02:47.858Z,23.61
2022-08-17T17:03:56.353Z,23.6
2022-08-17T17:07:08.323Z,23.63
2022-08-17T17:08:11.510Z,23.61
2022-08-17T17:09:17.151Z,23.6
2022-08-17T17:10:22.906Z,23.53
2022-08-17T17:11:15.627Z,23.45
2022-08-17T17:12:19.725Z,23.39
2022-08-17T17:14:26.403Z,23.3
2022-08-17T17:15:32.554Z,23.25
2022-08-17T17:20:44.461Z,23.09
2022-08-17T17:33:14.774Z,22.65
2022-08-17T17:34:16.225Z,22.62
2022-08-17T17:43:39.002Z,22.27
2022-08-17T17:44:40.628Z,22.18
2022-08-17T17:45:44.532Z,22.12
2022-08-17T17:46:50.886Z,22.09
2022-08-17T17:47:44.466Z,22.09
2022-08-17T17:48:43.833Z,22.08
2022-08-17T17:49:46.701Z,21.99
2022-08-17T18:15:50.551Z,20.93
2022-08-17T18:16:57.008Z,20.89
2022-08-17T18:18:51.392Z,20.82
2022-08-17T18:19:50.175Z,20.78
2022-08-17T18:20:53.923Z,20.73
2022-08-17T18:22:55.207Z,20.64
2022-08-17T18:24:01.676Z,20.64
2022-08-17T18:24:59.012Z,20.63
2022-08-17T18:26:00.346Z,20.65
2022-08-17T18:27:01.581Z,20.61
2022-08-17T18:28:00.261Z,20.59
2022-08-17T18:29:02.320Z,20.56
2022-08-17T18:38:28.685Z,20.3
2022-08-17T18:39:27.103Z,20.29
2022-08-17T18:40:29.210Z,20.27
2022-08-17T18:41:26.661Z,20.23
2022-08-17T18:42:29.023Z,20.22
2022-08-17T18:43:53.198Z,20.24
2022-08-17T18:46:37.708Z,20.25
2022-08-17T18:49:44.631Z,20.17
2022-08-17T18:50:42.691Z,20.14
2022-08-17T18:51:43.506Z,20.11
2022-08-17T18:52:43.423Z,20.05
2022-08-17T18:53:43.842Z,19.95
2022-08-17T18:55:49.056Z,19.81
2022-08-17T18:57:53.905Z,19.71
2022-08-17T18:59:55.351Z,19.64
2022-08-17T19:00:55.671Z,19.62
2022-08-17T19:04:01.007Z,19.54
2022-08-17T19:13:24.584Z,19.33
2022-08-17T19:14:23.391Z,19.32
2022-08-17T19:15:30.878Z,19.31
2022-08-17T19:16:34.469Z,19.31
2022-08-17T19:20:46.081Z,19.23
2022-08-17T19:24:47.566Z,19.28
2022-08-17T19:25:52.492Z,19.26
2022-08-17T19:28:02.361Z,19.26
2022-08-17T19:29:00.059Z,19.23
2022-08-17T19:30:11.223Z,19.21
2022-08-17T19:31:00.877Z,19.17
2022-08-17T19:31:59.561Z,19.12
2022-08-17T19:33:01.811Z,19.05
2022-08-17T19:34:00.703Z,19.02
2022-08-17T19:35:01.224Z,19
2022-08-17T20:00:11.024Z,18.74
2022-08-17T20:01:07.487Z,18.73
2022-08-17T20:05:15.230Z,18.64
2022-08-17T20:06:14.001Z,18.6
2022-08-17T20:07:19.032Z,18.58
2022-08-17T20:08:24.170Z,18.55
2022-08-17T20:09:29.754Z,18.53
2022-08-17T20:10:34.318Z,18.52
2022-08-17T20:11:33.901Z,18.49
2022-08-17T20:12:31.455Z,18.43
2022-08-17T20:13:38.740Z,18.39
2022-08-17T20:15:40.234Z,18.31
2022-08-17T20:16:38.136Z,18.29
2022-08-17T20:17:45.105Z,18.32
2022-08-17T20:23:56.616Z,18.23
2022-08-17T20:36:22.829Z,17.99
2022-08-17T20:41:30.836Z,17.95
2022-08-17T20:42:31.562Z,17.94
2022-08-17T20:44:37.612Z,17.94
2022-08-17T20:48:18.728Z,17.93
2022-08-17T20:48:49.931Z,17.91
2022-08-17T20:49:55.660Z,17.89
2022-08-17T20:50:56.384Z,17.85
2022-08-17T20:53:00.202Z,17.78
2022-08-17T20:54:06.743Z,17.79
2022-08-17T20:54:59.081Z,17.77
2022-08-17T20:55:59.601Z,17.72
2022-08-17T20:57:01.345Z,17.71
2022-08-17T20:59:02.282Z,17.69
2022-08-17T21:06:20.037Z,17.54
2022-08-17T21:08:24.656Z,17.5
2022-08-17T21:09:29.282Z,17.46
2022-08-17T21:32:30.143Z,17.16
2022-08-17T21:36:32.431Z,17.23
2022-08-17T21:39:40.916Z,17.21
2022-08-17T21:42:50.490Z,17.18
2022-08-17T21:43:52.033Z,17.14
2022-08-17T21:44:52.454Z,17.09
2022-08-17T21:46:54.293Z,17.04
2022-08-17T21:48:56.352Z,17.01
2022-08-17T21:49:56.565Z,16.97
2022-08-17T21:51:59.453Z,16.92
2022-08-17T21:53:02.532Z,16.9
2022-08-17T21:54:03.767Z,16.87
2022-08-17T21:55:02.442Z,16.86
2022-08-17T21:56:02.129Z,16.86
2022-08-17T21:57:05.789Z,16.84
2022-08-17T22:00:07.802Z,16.88
2022-08-17T22:05:14.803Z,16.91
2022-08-17T22:06:24.217Z,16.87
2022-08-17T22:08:23.935Z,16.79
2022-08-17T22:09:25.992Z,16.73
2022-08-17T22:11:24.873Z,16.71
2022-08-17T22:12:26.105Z,16.69
2022-08-17T22:13:29.378Z,16.69
2022-08-17T22:15:30.023Z,16.69
2022-08-17T22:16:31.554Z,16.69
2022-08-17T22:18:32.184Z,16.7